Terminal Aerodrome Forecast
Issued by NWS

Home | Current Version | Previous Version | Text Only | Print | Product List | Glossary On
Versions: 1 2 3 4 5 6 7 8 9 10 11 12 13 14 15 16 17 18 19 20 21
000
FTAK31 PAJN 211900 AAA
TAFAKT
TAF AMD
PAKT 211948Z 2120/2218 14019G32KT 6SM -RA VCTS SCT020 OVC035CB
      WS020/14040KT
     FM212100 14020G37KT 6SM -RA BR VCTS SCT012 OVC025CB
      WS020/14050KT
     FM220500 14013G21KT P6SM -RA SCT020 OVC040 WS020/16035KT
     FM221000 14010G16KT P6SM -SHRA SCT020 OVC040
      AMD LTD TO CLD VIS AND WIND 2206/2215=

USA.gov is the U.S. government's official web portal to all federal, state and local government web resources and services.